• Join FlightAware (Why Join?)
  • Login
  • US Flag GB Flag 
00:24 EDT


 

Airport Tracker/Info


-or-


 

Live Flight TrackerFlight Track Log ✈ SWA2383 ✈ 27-Apr-2013 ✈ KSNA - KSJC

Flight Track Log - Related Links

Times and Time Zones

All times are in EDT time to prevent confusion due to time zone crossing. See the SWA2383 flight status page for this flight to view local times or setup timezone preferences in your user account.

Time Position Orientation Groundspeed Altitude Reporting Facility
EDT Latitude Longitude Course Direction KTS MPH feet Rate Location/Type
20:07 33.6036 -117.8922 189° South 154 177 3,300  Level Los Angeles Center
20:08 33.5453 -117.9067 192° South 204 235 5,500 3,000 Climbing Los Angeles Center
20:09 33.4878 -117.9528 214° Southwest 243 280 9,500 3,120 Climbing Los Angeles Center
20:10 33.4167 -118.0122 215° Southwest 300 345 11,900 3,240 Climbing Los Angeles Center
20:11 33.4562 -118.2443 235° Southwest  Level FlightAware Approximate
20:11 33.3356 -118.1194 228° Southwest 377 434 16,300  Level Los Angeles Center
20:12 33.3808 -118.2258 297° West 375 432 19,800 3,360 Climbing Los Angeles Center
20:13 33.4506 -118.3203 312° West 377 434 23,300 2,940 Climbing Los Angeles Center
20:14 33.5236 -118.4183 312° West 388 447 25,900 2,400 Climbing Los Angeles Center
20:15 33.6003 -118.5242 311° West 413 475 28,300 2,340 Climbing Los Angeles Center
20:16 33.6797 -118.6328 311° West 425 489 30,700 2,400 Climbing Los Angeles Center
20:17 33.7589 -118.7386 312° West 423 487 33,300 2,280 Climbing Los Angeles Center
20:18 33.8353 -118.8419 312° West 415 478 35,400 1,260 Climbing Los Angeles Center
20:19 33.9128 -118.9483 311° West 421 484 36,000 240 Climbing Los Angeles Center
20:20 33.9889 -119.0533 311° West 419 482 36,000  Level Los Angeles Center
20:21 34.0797 -119.1789 311° West 414 476 36,000  Level Los Angeles Center
20:22 34.1561 -119.2831 312° West 414 476 36,000  Level Los Angeles Center
20:23 34.2311 -119.3875 311° West 412 474 36,000  Level Los Angeles Center
20:24 34.3064 -119.4917 311° West 412 474 36,000  Level Los Angeles Center
20:25 34.3817 -119.5964 311° West 412 474 36,000  Level Los Angeles Center
20:26 34.4561 -119.7014 311° West 413 475 36,000  Level Los Angeles Center
20:27 34.5358 -119.7997 315° West 411 473 36,000  Level Los Angeles Center
20:28 34.6372 -119.8758 328° Northwest 419 482 36,000  Level Los Angeles Center
20:29 34.7503 -119.9717 325° Northwest 412 474 36,000  Level Los Angeles Center
20:30 34.8464 -120.0506 326° Northwest 414 476 36,000  Level Los Angeles Center
20:31 34.9428 -120.1303 326° Northwest 418 481 36,000  Level Los Angeles Center
20:32 35.0389 -120.2092 326° Northwest 420 483 36,000  Level Los Angeles Center
20:33 35.1325 -120.2881 325° Northwest 413 475 36,000  Level Los Angeles Center
20:34 35.2258 -120.3675 325° Northwest 415 478 36,000  Level Los Angeles Center
20:35 35.3203 -120.4472 325° Northwest 422 486 36,000  Level Los Angeles Center
20:36 35.4347 -120.5461 325° Northwest 425 489 36,000  Level Los Angeles Center
20:37 35.4639 -120.5703 326° Northwest 428 493 36,000  Level Oakland Center
20:38 35.5594 -120.6497 326° Northwest 414 476 36,000  Level Oakland Center
20:39 35.6547 -120.7303 326° Northwest 412 474 36,000 -180 Level Oakland Center
20:40 35.7506 -120.8114 326° Northwest 417 480 35,700 -1,440 Descending Oakland Center
20:41 35.8439 -120.8925 325° Northwest 409 471 33,100 -2,340 Descending Oakland Center
20:42 35.9381 -120.9708 326° Northwest 406 467 31,000 -2,040 Descending Oakland Center
20:43 36.0264 -121.0486 325° Northwest 391 450 29,000 -1,500 Descending Oakland Center
20:44 36.1142 -121.1219 326° Northwest 382 440 28,000 -1,140 Descending Oakland Center
20:45 36.2019 -121.1972 325° Northwest 386 444 26,800 -1,800 Descending Oakland Center
20:46 36.2889 -121.2719 325° Northwest 380 437 24,400 -2,460 Descending Oakland Center
20:47 36.3739 -121.3467 325° Northwest 376 433 21,900 -2,340 Descending Oakland Center
20:48 36.4572 -121.4208 324° Northwest 368 423 19,700 -2,280 Descending Oakland Center
20:49 36.5367 -121.4894 325° Northwest 351 404 17,300 -2,340 Descending Oakland Center
20:50 36.6506 -121.5069 353° North 342 394 15,000 -2,220 Descending Oakland Center
20:51 36.7383 -121.5211 353° North 321 369 12,800 -2,100 Descending Oakland Center
20:52 36.8239 -121.5497 345° North 319 367 10,800 -1,680 Descending Oakland Center
20:53 36.8975 -121.5872 338° Northwest 311 358 9,500 -1,380 Descending Oakland Center
20:54 36.9722 -121.6219 340° North 292 336 8,100 -1,440 Descending Oakland Center
20:55 37.0450 -121.6556 340° North 282 325 6,600 -1,380 Descending Oakland Center
20:56 37.1158 -121.6889 339° North 275 316 5,400 -1,020 Descending Oakland Center
20:57 37.1781 -121.7222 337° Northwest 260 299 4,600 -1,200 Descending Oakland Center
20:58 37.2347 -121.7911 316° Northwest 243 280 3,000 -1,320 Descending Oakland Center
20:59 37.2767 -121.8347 320° Northwest 217 250 2,000 -900 Descending Oakland Center
21:00 37.3089 -121.8717 318° Northwest 183 211 1,200 -720 Descending Oakland Center
21:01 37.3358 -121.9003 320° Northwest 153 176 600 -600 Descending Oakland Center
21:04 37.3500 -121.9167 North  Level FlightAware Approximate
21:11 37.3627 -121.9291 North  Level Estimated